Información del aeropuerto WSSS

Información de pista
Pista 02C Longitud 13123 ft Anchura 197 ft
Elevación 15 ft Umbral 0 ft Rumbo 23
Pista 20C Longitud 13123 ft Anchura 197 ft
Elevación 15 ft Umbral 0 ft Rumbo 203
Pista 02L Longitud 13123 ft Anchura 197 ft
Elevación 22 ft Umbral 0 ft Rumbo 23
Pista 20R Longitud 13123 ft Anchura 197 ft
Elevación 14 ft Umbral 2429 ft Rumbo 203
Pista 02R Longitud 9015 ft Anchura 195 ft
Elevación 0 ft Umbral 0 ft Rumbo 23
Pista 20L Longitud 9015 ft Anchura 195 ft
Elevación 0 ft Umbral 0 ft Rumbo 203
Frecuencias del aeropuerto
Tipo A/D Nombre APP/DEP Frecuencia 120.3 MHZ
Tipo ARR Nombre ARR Frecuencia 119.3 MHZ
Tipo ATIS Nombre ATIS Frecuencia 128.6 MHZ
Tipo CLD Nombre CLNC DEL Frecuencia 121.65 MHZ
Tipo GND Nombre GND Frecuencia 124.3 MHZ
Tipo TWR Nombre TWR Frecuencia 118.6 MHZ
Radioayudas del aeropuerto
Tipo NDB Nombre Bedok Frecuencia 232 KHZ
Tipo VOR-DME Nombre Tekong Frecuencia 116500 KHZ
Información meteorológica del aeropuerto y NOTAM
ADDS - METARS form results

(0932 UTC 19 April 2021)
Data provider http://aviationweather.gov/metar/data/
 
METAR text: WSSS 190930Z 19010KT 9999 FEW020 BKN300 30/24 Q1007 NOSIG
Conditions at: WSSS (SINGAPORE/CHANGI, SG) observed 0930 UTC 19 April 2021
Temperature: 30.0°C (86°F)
Dewpoint: 24.0°C (75°F) [RH = 70%]
Pressure (altimeter): 29.73 inches Hg (1007.0 mb)
Winds: from the S (190 degrees) at 12 MPH (10 knots; 5.1 m/s)
Visibility: 6 or more miles (10+ km)
Ceiling: 30000 feet AGL
Clouds: few clouds at 2000 feet AGL
broken clouds at 30000 feet AGL
Weather: no significant weather observed at this time

METAR text: WSSS 190900Z 18011KT 9999 FEW020 BKN300 29/23 Q1008 NOSIG
Conditions at: WSSS (SINGAPORE/CHANGI, SG) observed 0900 UTC 19 April 2021
Temperature: 29.0°C (84°F)
Dewpoint: 23.0°C (73°F) [RH = 70%]
Pressure (altimeter): 29.76 inches Hg (1008.0 mb)
Winds: from the S (180 degrees) at 13 MPH (11 knots; 5.7 m/s)
Visibility: 6 or more miles (10+ km)
Ceiling: 30000 feet AGL
Clouds: few clouds at 2000 feet AGL
broken clouds at 30000 feet AGL
Weather: no significant weather observed at this time

Forecast for: AMD
Text: TAF AMD WSSS 190800Z 1908/2012 24005KT 9999 FEW015CB SCT020
Forecast period: 0800 UTC 19 April 2021 to 1200 UTC 20 April 2021
Forecast type: FROM: standard forecast or significant change
Winds: from the WSW (240 degrees) at 6 MPH (5 knots; 2.6 m/s)
Visibility: 6 or more miles (10+ km)
Ceiling: at least 12,000 feet AGL
Clouds: few clouds at 1500 feet AGL
scattered clouds at 2000 feet AGL
Weather: no significant weather forecast for this period
Text: TEMPO 1922/2001 3000 TSRA FEW012CB BKN015
Forecast period: 2200 UTC 19 April 2021 to 0100 UTC 20 April 2021
Forecast type: TEMPORARY: The following changes expected for less than half the time period
Visibility: 1.86 miles (2.99 km)
Ceiling: 1500 feet AGL
Clouds: few clouds at 1200 feet AGL
broken clouds at 1500 feet AGL
Weather: TSRA  (rain associated with thunderstorm(s))